sensor_id;sensor_type;location;lat;lon;timestamp;temperature;humidity
34766;DHT22;20984;43.508;1.504;2023-12-20T00:01:35;7.10;99.90
34766;DHT22;20984;43.508;1.504;2023-12-20T00:04:02;7.10;99.90
34766;DHT22;20984;43.508;1.504;2023-12-20T00:06:28;7.10;99.90
34766;DHT22;20984;43.508;1.504;2023-12-20T00:08:53;7.20;99.90
34766;DHT22;20984;43.508;1.504;2023-12-20T00:11:19;7.20;99.90
34766;DHT22;20984;43.508;1.504;2023-12-20T00:13:44;7.10;99.90
34766;DHT22;20984;43.508;1.504;2023-12-20T00:16:10;7.10;99.90
34766;DHT22;20984;43.508;1.504;2023-12-20T00:18:36;7.10;99.90
34766;DHT22;20984;43.508;1.504;2023-12-20T00:21:01;7.10;99.90
34766;DHT22;20984;43.508;1.504;2023-12-20T00:23:27;7.10;99.90
34766;DHT22;20984;43.508;1.504;2023-12-20T00:25:52;7.10;99.90
34766;DHT22;20984;43.508;1.504;2023-12-20T00:28:18;7.20;99.90
34766;DHT22;20984;43.508;1.504;2023-12-20T00:30:44;7.20;99.90
34766;DHT22;20984;43.508;1.504;2023-12-20T00:33:09;7.20;99.90
34766;DHT22;20984;43.508;1.504;2023-12-20T00:35:35;7.20;99.90
34766;DHT22;20984;43.508;1.504;2023-12-20T00:38:01;7.20;99.90
34766;DHT22;20984;43.508;1.504;2023-12-20T00:40:26;7.20;99.90
34766;DHT22;20984;43.508;1.504;2023-12-20T00:42:52;7.20;99.90
34766;DHT22;20984;43.508;1.504;2023-12-20T00:45:17;7.20;99.90
34766;DHT22;20984;43.508;1.504;2023-12-20T00:47:43;7.20;99.90
34766;DHT22;20984;43.508;1.504;2023-12-20T00:50:09;7.20;99.90
34766;DHT22;20984;43.508;1.504;2023-12-20T00:52:35;7.30;99.90
34766;DHT22;20984;43.508;1.504;2023-12-20T00:55:00;7.20;99.90
34766;DHT22;20984;43.508;1.504;2023-12-20T00:57:26;7.30;99.90
34766;DHT22;20984;43.508;1.504;2023-12-20T00:59:51;7.30;99.90
34766;DHT22;20984;43.508;1.504;2023-12-20T01:02:17;7.30;99.90
34766;DHT22;20984;43.508;1.504;2023-12-20T01:04:43;7.30;99.90
34766;DHT22;20984;43.508;1.504;2023-12-20T01:07:09;7.30;99.90
34766;DHT22;20984;43.508;1.504;2023-12-20T01:09:34;7.30;99.90
34766;DHT22;20984;43.508;1.504;2023-12-20T01:12:00;7.40;99.90
34766;DHT22;20984;43.508;1.504;2023-12-20T01:14:25;7.40;99.90
34766;DHT22;20984;43.508;1.504;2023-12-20T01:16:51;7.50;99.90
34766;DHT22;20984;43.508;1.504;2023-12-20T01:19:17;7.50;99.90
34766;DHT22;20984;43.508;1.504;2023-12-20T01:21:42;7.60;99.90
34766;DHT22;20984;43.508;1.504;2023-12-20T01:24:08;7.60;99.90
34766;DHT22;20984;43.508;1.504;2023-12-20T01:26:34;7.60;99.90
34766;DHT22;20984;43.508;1.504;2023-12-20T01:29:00;7.60;99.90
34766;DHT22;20984;43.508;1.504;2023-12-20T01:31:26;7.60;99.90
34766;DHT22;20984;43.508;1.504;2023-12-20T01:33:52;7.50;99.90
34766;DHT22;20984;43.508;1.504;2023-12-20T01:36:18;7.50;99.90
34766;DHT22;20984;43.508;1.504;2023-12-20T01:38:44;7.50;99.90
34766;DHT22;20984;43.508;1.504;2023-12-20T01:41:09;7.60;99.90
34766;DHT22;20984;43.508;1.504;2023-12-20T01:43:35;7.60;99.90
34766;DHT22;20984;43.508;1.504;2023-12-20T01:46:01;7.50;99.90
34766;DHT22;20984;43.508;1.504;2023-12-20T01:48:27;7.60;99.90
34766;DHT22;20984;43.508;1.504;2023-12-20T01:50:54;7.50;99.90
34766;DHT22;20984;43.508;1.504;2023-12-20T01:53:21;7.50;99.90
34766;DHT22;20984;43.508;1.504;2023-12-20T01:55:50;7.50;99.90
34766;DHT22;20984;43.508;1.504;2023-12-20T01:58:19;7.50;99.90
34766;DHT22;20984;43.508;1.504;2023-12-20T02:00:45;7.60;99.90
34766;DHT22;20984;43.508;1.504;2023-12-20T02:03:12;7.60;99.90
34766;DHT22;20984;43.508;1.504;2023-12-20T02:05:38;7.60;99.90
34766;DHT22;20984;43.508;1.504;2023-12-20T02:08:04;7.70;99.90
34766;DHT22;20984;43.508;1.504;2023-12-20T02:10:31;7.80;99.90
34766;DHT22;20984;43.508;1.504;2023-12-20T02:12:57;7.80;99.90
34766;DHT22;20984;43.508;1.504;2023-12-20T02:15:23;7.80;99.90
34766;DHT22;20984;43.508;1.504;2023-12-20T02:17:49;7.80;99.90
34766;DHT22;20984;43.508;1.504;2023-12-20T02:20:15;7.90;99.90
34766;DHT22;20984;43.508;1.504;2023-12-20T02:22:40;7.80;99.90
34766;DHT22;20984;43.508;1.504;2023-12-20T02:25:06;7.80;99.90
34766;DHT22;20984;43.508;1.504;2023-12-20T02:27:32;7.80;99.90
34766;DHT22;20984;43.508;1.504;2023-12-20T02:29:58;7.80;99.90
34766;DHT22;20984;43.508;1.504;2023-12-20T02:32:24;7.80;99.90
34766;DHT22;20984;43.508;1.504;2023-12-20T02:34:54;7.70;99.90
34766;DHT22;20984;43.508;1.504;2023-12-20T02:37:20;7.70;99.90
34766;DHT22;20984;43.508;1.504;2023-12-20T02:39:45;7.60;99.90
34766;DHT22;20984;43.508;1.504;2023-12-20T02:42:11;7.60;99.90
34766;DHT22;20984;43.508;1.504;2023-12-20T02:44:37;7.50;99.90
34766;DHT22;20984;43.508;1.504;2023-12-20T02:47:03;7.50;99.90
34766;DHT22;20984;43.508;1.504;2023-12-20T02:49:28;7.50;99.90
34766;DHT22;20984;43.508;1.504;2023-12-20T02:51:54;7.60;99.90
34766;DHT22;20984;43.508;1.504;2023-12-20T02:54:20;7.60;99.90
34766;DHT22;20984;43.508;1.504;2023-12-20T02:56:45;7.60;99.90
34766;DHT22;20984;43.508;1.504;2023-12-20T02:59:11;7.60;99.90
34766;DHT22;20984;43.508;1.504;2023-12-20T03:01:43;7.60;99.90
34766;DHT22;20984;43.508;1.504;2023-12-20T03:04:09;7.60;99.90
34766;DHT22;20984;43.508;1.504;2023-12-20T03:06:35;7.60;99.90
34766;DHT22;20984;43.508;1.504;2023-12-20T03:09:01;7.60;99.90
34766;DHT22;20984;43.508;1.504;2023-12-20T03:11:27;7.60;99.90
34766;DHT22;20984;43.508;1.504;2023-12-20T03:13:53;7.60;99.90
34766;DHT22;20984;43.508;1.504;2023-12-20T03:16:18;7.50;99.90
34766;DHT22;20984;43.508;1.504;2023-12-20T03:18:44;7.50;99.90
34766;DHT22;20984;43.508;1.504;2023-12-20T03:21:10;7.50;99.90
34766;DHT22;20984;43.508;1.504;2023-12-20T03:23:35;7.40;99.90
34766;DHT22;20984;43.508;1.504;2023-12-20T03:26:01;7.40;99.90
34766;DHT22;20984;43.508;1.504;2023-12-20T03:28:27;7.40;99.90
34766;DHT22;20984;43.508;1.504;2023-12-20T03:30:53;7.40;99.90
34766;DHT22;20984;43.508;1.504;2023-12-20T03:33:19;7.40;99.90
34766;DHT22;20984;43.508;1.504;2023-12-20T03:35:44;7.40;99.90
34766;DHT22;20984;43.508;1.504;2023-12-20T03:38:10;7.40;99.90
34766;DHT22;20984;43.508;1.504;2023-12-20T03:40:36;7.40;99.90
34766;DHT22;20984;43.508;1.504;2023-12-20T03:43:01;7.40;99.90
34766;DHT22;20984;43.508;1.504;2023-12-20T03:45:27;7.40;99.90
34766;DHT22;20984;43.508;1.504;2023-12-20T03:47:53;7.40;99.90
34766;DHT22;20984;43.508;1.504;2023-12-20T03:50:23;7.30;99.90
34766;DHT22;20984;43.508;1.504;2023-12-20T03:52:49;7.30;99.90
34766;DHT22;20984;43.508;1.504;2023-12-20T03:55:15;7.30;99.90
34766;DHT22;20984;43.508;1.504;2023-12-20T03:57:41;7.30;99.90
34766;DHT22;20984;43.508;1.504;2023-12-20T04:00:10;7.30;99.90
34766;DHT22;20984;43.508;1.504;2023-12-20T04:02:39;7.30;99.90
34766;DHT22;20984;43.508;1.504;2023-12-20T04:05:06;7.30;99.90
34766;DHT22;20984;43.508;1.504;2023-12-20T04:07:32;7.20;99.90
34766;DHT22;20984;43.508;1.504;2023-12-20T04:09:58;7.20;99.90
34766;DHT22;20984;43.508;1.504;2023-12-20T04:12:24;7.20;99.90
34766;DHT22;20984;43.508;1.504;2023-12-20T04:14:49;7.20;99.90
34766;DHT22;20984;43.508;1.504;2023-12-20T04:17:16;7.10;99.90
34766;DHT22;20984;43.508;1.504;2023-12-20T04:19:42;7.10;99.90
34766;DHT22;20984;43.508;1.504;2023-12-20T04:22:08;7.10;99.90
34766;DHT22;20984;43.508;1.504;2023-12-20T04:24:33;7.10;99.90
34766;DHT22;20984;43.508;1.504;2023-12-20T04:26:59;7.10;99.90
34766;DHT22;20984;43.508;1.504;2023-12-20T04:29:24;7.10;99.90
34766;DHT22;20984;43.508;1.504;2023-12-20T04:31:50;7.00;99.90
34766;DHT22;20984;43.508;1.504;2023-12-20T04:34:17;7.10;99.90
34766;DHT22;20984;43.508;1.504;2023-12-20T04:36:43;7.10;99.90
34766;DHT22;20984;43.508;1.504;2023-12-20T04:39:09;7.10;99.90
34766;DHT22;20984;43.508;1.504;2023-12-20T04:41:35;7.20;99.90
34766;DHT22;20984;43.508;1.504;2023-12-20T04:44:00;7.20;99.90
34766;DHT22;20984;43.508;1.504;2023-12-20T04:46:26;7.30;99.90
34766;DHT22;20984;43.508;1.504;2023-12-20T04:48:52;7.40;99.90
34766;DHT22;20984;43.508;1.504;2023-12-20T04:51:18;7.40;99.90
34766;DHT22;20984;43.508;1.504;2023-12-20T04:53:43;7.40;99.90
34766;DHT22;20984;43.508;1.504;2023-12-20T04:56:09;7.40;99.90
34766;DHT22;20984;43.508;1.504;2023-12-20T04:58:35;7.40;99.90
34766;DHT22;20984;43.508;1.504;2023-12-20T05:01:01;7.50;99.90
34766;DHT22;20984;43.508;1.504;2023-12-20T05:03:26;7.50;99.90
34766;DHT22;20984;43.508;1.504;2023-12-20T05:05:52;7.50;99.90
34766;DHT22;20984;43.508;1.504;2023-12-20T05:08:17;7.60;99.90
34766;DHT22;20984;43.508;1.504;2023-12-20T05:10:43;7.60;99.90
34766;DHT22;20984;43.508;1.504;2023-12-20T05:13:09;7.60;99.90
34766;DHT22;20984;43.508;1.504;2023-12-20T05:15:34;7.70;99.90
34766;DHT22;20984;43.508;1.504;2023-12-20T05:18:00;7.70;99.90
34766;DHT22;20984;43.508;1.504;2023-12-20T05:20:26;7.70;99.90
34766;DHT22;20984;43.508;1.504;2023-12-20T05:22:51;7.80;99.90
34766;DHT22;20984;43.508;1.504;2023-12-20T05:25:17;7.80;99.90
34766;DHT22;20984;43.508;1.504;2023-12-20T05:27:43;7.80;99.90
34766;DHT22;20984;43.508;1.504;2023-12-20T05:30:09;7.90;99.90
34766;DHT22;20984;43.508;1.504;2023-12-20T05:32:34;7.90;99.90
34766;DHT22;20984;43.508;1.504;2023-12-20T05:35:00;7.90;99.90
34766;DHT22;20984;43.508;1.504;2023-12-20T05:37:26;8.00;99.90
34766;DHT22;20984;43.508;1.504;2023-12-20T05:39:51;8.00;99.90
34766;DHT22;20984;43.508;1.504;2023-12-20T05:42:17;8.00;99.90
34766;DHT22;20984;43.508;1.504;2023-12-20T05:44:42;8.00;99.90
34766;DHT22;20984;43.508;1.504;2023-12-20T05:47:08;8.00;99.90
34766;DHT22;20984;43.508;1.504;2023-12-20T05:49:34;8.10;99.90
34766;DHT22;20984;43.508;1.504;2023-12-20T05:51:59;8.10;99.90
34766;DHT22;20984;43.508;1.504;2023-12-20T05:54:25;8.10;99.90
34766;DHT22;20984;43.508;1.504;2023-12-20T05:56:50;8.10;99.90
34766;DHT22;20984;43.508;1.504;2023-12-20T05:59:16;8.20;99.90
34766;DHT22;20984;43.508;1.504;2023-12-20T06:01:42;8.20;99.90
34766;DHT22;20984;43.508;1.504;2023-12-20T06:04:07;8.30;99.90
34766;DHT22;20984;43.508;1.504;2023-12-20T06:06:33;8.30;99.90
34766;DHT22;20984;43.508;1.504;2023-12-20T06:08:58;8.30;99.90
34766;DHT22;20984;43.508;1.504;2023-12-20T06:11:24;8.40;99.90
34766;DHT22;20984;43.508;1.504;2023-12-20T06:13:50;8.40;99.90
34766;DHT22;20984;43.508;1.504;2023-12-20T06:16:18;8.40;99.90
34766;DHT22;20984;43.508;1.504;2023-12-20T06:18:44;8.50;99.90
34766;DHT22;20984;43.508;1.504;2023-12-20T06:21:10;8.50;99.90
34766;DHT22;20984;43.508;1.504;2023-12-20T06:23:38;8.50;99.90
34766;DHT22;20984;43.508;1.504;2023-12-20T06:26:04;8.50;99.90
34766;DHT22;20984;43.508;1.504;2023-12-20T06:28:30;8.60;99.90
34766;DHT22;20984;43.508;1.504;2023-12-20T06:30:55;8.60;99.90
34766;DHT22;20984;43.508;1.504;2023-12-20T06:33:22;8.60;99.90
34766;DHT22;20984;43.508;1.504;2023-12-20T06:35:48;8.60;99.90
34766;DHT22;20984;43.508;1.504;2023-12-20T06:38:14;8.60;99.90
34766;DHT22;20984;43.508;1.504;2023-12-20T06:40:40;8.60;99.90
34766;DHT22;20984;43.508;1.504;2023-12-20T06:43:05;8.60;99.90
34766;DHT22;20984;43.508;1.504;2023-12-20T06:45:32;8.70;99.90
34766;DHT22;20984;43.508;1.504;2023-12-20T06:47:58;8.70;99.90
34766;DHT22;20984;43.508;1.504;2023-12-20T06:50:24;8.70;99.90
34766;DHT22;20984;43.508;1.504;2023-12-20T06:52:49;8.70;99.90
34766;DHT22;20984;43.508;1.504;2023-12-20T06:55:15;8.70;99.90
34766;DHT22;20984;43.508;1.504;2023-12-20T06:57:42;8.80;99.90
34766;DHT22;20984;43.508;1.504;2023-12-20T07:00:08;8.80;99.90
34766;DHT22;20984;43.508;1.504;2023-12-20T07:02:36;8.80;99.90
34766;DHT22;20984;43.508;1.504;2023-12-20T07:05:01;8.90;99.90
34766;DHT22;20984;43.508;1.504;2023-12-20T07:07:27;8.90;99.90
34766;DHT22;20984;43.508;1.504;2023-12-20T07:09:53;8.90;99.90
34766;DHT22;20984;43.508;1.504;2023-12-20T07:12:18;9.00;99.90
34766;DHT22;20984;43.508;1.504;2023-12-20T07:14:45;8.90;99.90
34766;DHT22;20984;43.508;1.504;2023-12-20T07:17:11;9.00;99.90
34766;DHT22;20984;43.508;1.504;2023-12-20T07:19:39;9.00;99.90
34766;DHT22;20984;43.508;1.504;2023-12-20T07:22:06;9.00;99.90
34766;DHT22;20984;43.508;1.504;2023-12-20T07:24:32;9.00;99.90
34766;DHT22;20984;43.508;1.504;2023-12-20T07:26:58;9.00;99.90
34766;DHT22;20984;43.508;1.504;2023-12-20T07:29:24;9.00;99.90
34766;DHT22;20984;43.508;1.504;2023-12-20T07:31:50;9.00;99.90
34766;DHT22;20984;43.508;1.504;2023-12-20T07:34:17;9.00;99.90
34766;DHT22;20984;43.508;1.504;2023-12-20T07:36:43;8.90;99.90
34766;DHT22;20984;43.508;1.504;2023-12-20T07:39:08;8.90;99.90
34766;DHT22;20984;43.508;1.504;2023-12-20T07:41:34;8.90;99.90
34766;DHT22;20984;43.508;1.504;2023-12-20T07:44:00;8.90;99.90
34766;DHT22;20984;43.508;1.504;2023-12-20T07:46:25;8.90;99.90
34766;DHT22;20984;43.508;1.504;2023-12-20T07:48:51;8.80;99.90
34766;DHT22;20984;43.508;1.504;2023-12-20T07:51:17;8.80;99.90
34766;DHT22;20984;43.508;1.504;2023-12-20T07:53:42;8.80;99.90
34766;DHT22;20984;43.508;1.504;2023-12-20T07:56:16;8.70;99.90
34766;DHT22;20984;43.508;1.504;2023-12-20T07:58:41;8.70;99.90
34766;DHT22;20984;43.508;1.504;2023-12-20T08:01:07;8.70;99.90
34766;DHT22;20984;43.508;1.504;2023-12-20T08:03:33;8.70;99.90
34766;DHT22;20984;43.508;1.504;2023-12-20T08:05:58;8.60;99.90
34766;DHT22;20984;43.508;1.504;2023-12-20T08:08:25;8.60;99.90
34766;DHT22;20984;43.508;1.504;2023-12-20T08:10:50;8.60;99.90
34766;DHT22;20984;43.508;1.504;2023-12-20T08:13:16;8.60;99.90
34766;DHT22;20984;43.508;1.504;2023-12-20T08:15:42;8.60;99.90
34766;DHT22;20984;43.508;1.504;2023-12-20T08:18:08;8.60;99.90
34766;DHT22;20984;43.508;1.504;2023-12-20T08:20:33;8.60;99.90
34766;DHT22;20984;43.508;1.504;2023-12-20T08:22:59;8.60;99.90
34766;DHT22;20984;43.508;1.504;2023-12-20T08:25:24;8.60;99.90
34766;DHT22;20984;43.508;1.504;2023-12-20T08:27:50;8.60;99.90
34766;DHT22;20984;43.508;1.504;2023-12-20T08:30:15;8.50;99.90
34766;DHT22;20984;43.508;1.504;2023-12-20T08:32:46;8.50;99.90
34766;DHT22;20984;43.508;1.504;2023-12-20T08:35:11;8.50;99.90
34766;DHT22;20984;43.508;1.504;2023-12-20T08:37:37;8.50;99.90
34766;DHT22;20984;43.508;1.504;2023-12-20T08:40:03;8.50;99.90
34766;DHT22;20984;43.508;1.504;2023-12-20T08:42:28;8.50;99.90
34766;DHT22;20984;43.508;1.504;2023-12-20T08:44:57;8.50;99.90
34766;DHT22;20984;43.508;1.504;2023-12-20T08:47:24;8.50;99.90
34766;DHT22;20984;43.508;1.504;2023-12-20T08:49:49;8.50;99.90
34766;DHT22;20984;43.508;1.504;2023-12-20T08:52:15;8.50;99.90
34766;DHT22;20984;43.508;1.504;2023-12-20T08:54:41;8.50;99.90
34766;DHT22;20984;43.508;1.504;2023-12-20T08:57:06;8.50;99.90
34766;DHT22;20984;43.508;1.504;2023-12-20T08:59:33;8.50;99.90
34766;DHT22;20984;43.508;1.504;2023-12-20T09:01:58;8.50;99.90
34766;DHT22;20984;43.508;1.504;2023-12-20T09:04:24;8.50;99.90
34766;DHT22;20984;43.508;1.504;2023-12-20T09:06:50;8.50;99.90
34766;DHT22;20984;43.508;1.504;2023-12-20T09:09:16;8.60;99.90
34766;DHT22;20984;43.508;1.504;2023-12-20T09:11:41;8.60;99.90
34766;DHT22;20984;43.508;1.504;2023-12-20T09:14:07;8.60;99.90
34766;DHT22;20984;43.508;1.504;2023-12-20T09:16:33;8.60;99.90
34766;DHT22;20984;43.508;1.504;2023-12-20T09:18:59;8.60;99.90
34766;DHT22;20984;43.508;1.504;2023-12-20T09:21:25;8.60;99.90
34766;DHT22;20984;43.508;1.504;2023-12-20T09:23:51;8.60;99.90
34766;DHT22;20984;43.508;1.504;2023-12-20T09:26:16;8.60;99.90
34766;DHT22;20984;43.508;1.504;2023-12-20T09:28:42;8.60;99.90
34766;DHT22;20984;43.508;1.504;2023-12-20T09:31:08;8.60;99.90
34766;DHT22;20984;43.508;1.504;2023-12-20T09:33:34;8.60;99.90
34766;DHT22;20984;43.508;1.504;2023-12-20T09:35:59;8.60;99.90
34766;DHT22;20984;43.508;1.504;2023-12-20T09:38:25;8.60;99.90
34766;DHT22;20984;43.508;1.504;2023-12-20T09:40:51;8.60;99.90
34766;DHT22;20984;43.508;1.504;2023-12-20T09:43:19;8.60;99.90
34766;DHT22;20984;43.508;1.504;2023-12-20T09:45:46;8.60;99.90
34766;DHT22;20984;43.508;1.504;2023-12-20T09:48:13;8.70;99.90
34766;DHT22;20984;43.508;1.504;2023-12-20T09:50:42;8.70;99.90
34766;DHT22;20984;43.508;1.504;2023-12-20T09:53:14;8.70;99.90
34766;DHT22;20984;43.508;1.504;2023-12-20T09:55:41;8.70;99.90
34766;DHT22;20984;43.508;1.504;2023-12-20T09:58:07;8.80;99.90
34766;DHT22;20984;43.508;1.504;2023-12-20T10:00:34;8.80;99.90
34766;DHT22;20984;43.508;1.504;2023-12-20T10:03:01;8.80;99.90
34766;DHT22;20984;43.508;1.504;2023-12-20T10:05:28;8.90;99.90
34766;DHT22;20984;43.508;1.504;2023-12-20T10:07:54;8.90;99.90
34766;DHT22;20984;43.508;1.504;2023-12-20T10:10:20;8.90;99.90
34766;DHT22;20984;43.508;1.504;2023-12-20T10:13:09;9.00;99.90
34766;DHT22;20984;43.508;1.504;2023-12-20T10:15:36;9.00;99.90
34766;DHT22;20984;43.508;1.504;2023-12-20T10:18:02;9.10;99.90
34766;DHT22;20984;43.508;1.504;2023-12-20T10:20:29;9.10;99.90
34766;DHT22;20984;43.508;1.504;2023-12-20T10:22:56;9.20;99.90
34766;DHT22;20984;43.508;1.504;2023-12-20T10:25:22;9.20;99.90
34766;DHT22;20984;43.508;1.504;2023-12-20T10:27:49;9.20;99.90
34766;DHT22;20984;43.508;1.504;2023-12-20T10:30:14;9.20;99.90
34766;DHT22;20984;43.508;1.504;2023-12-20T10:32:40;9.30;99.90
34766;DHT22;20984;43.508;1.504;2023-12-20T10:35:09;9.30;99.90
34766;DHT22;20984;43.508;1.504;2023-12-20T10:37:36;9.30;99.90
34766;DHT22;20984;43.508;1.504;2023-12-20T10:40:04;9.40;99.90
34766;DHT22;20984;43.508;1.504;2023-12-20T10:42:31;9.40;99.90
34766;DHT22;20984;43.508;1.504;2023-12-20T10:44:59;9.50;99.90
34766;DHT22;20984;43.508;1.504;2023-12-20T10:47:26;9.50;99.90
34766;DHT22;20984;43.508;1.504;2023-12-20T10:49:55;9.50;99.90
34766;DHT22;20984;43.508;1.504;2023-12-20T10:52:23;9.60;99.90
34766;DHT22;20984;43.508;1.504;2023-12-20T10:54:49;9.70;99.90
34766;DHT22;20984;43.508;1.504;2023-12-20T10:57:17;9.80;99.90
34766;DHT22;20984;43.508;1.504;2023-12-20T10:59:45;9.80;99.90
34766;DHT22;20984;43.508;1.504;2023-12-20T11:02:14;9.90;99.90
34766;DHT22;20984;43.508;1.504;2023-12-20T11:05:02;9.90;99.90
34766;DHT22;20984;43.508;1.504;2023-12-20T11:07:36;9.90;99.90
34766;DHT22;20984;43.508;1.504;2023-12-20T11:10:26;10.00;99.90
34766;DHT22;20984;43.508;1.504;2023-12-20T11:13:20;10.10;99.90
34766;DHT22;20984;43.508;1.504;2023-12-20T11:15:48;10.10;99.90
34766;DHT22;20984;43.508;1.504;2023-12-20T11:18:15;10.10;99.90
34766;DHT22;20984;43.508;1.504;2023-12-20T11:20:41;10.00;99.90
34766;DHT22;20984;43.508;1.504;2023-12-20T11:23:08;9.90;99.90
34766;DHT22;20984;43.508;1.504;2023-12-20T11:25:54;10.00;99.90
34766;DHT22;20984;43.508;1.504;2023-12-20T11:28:24;10.10;99.90
34766;DHT22;20984;43.508;1.504;2023-12-20T11:30:52;10.30;99.90
34766;DHT22;20984;43.508;1.504;2023-12-20T11:33:26;10.50;99.90
34766;DHT22;20984;43.508;1.504;2023-12-20T11:35:52;10.60;99.90
34766;DHT22;20984;43.508;1.504;2023-12-20T11:38:21;10.40;99.90
34766;DHT22;20984;43.508;1.504;2023-12-20T11:40:49;10.20;99.90
34766;DHT22;20984;43.508;1.504;2023-12-20T11:43:35;9.90;99.90
34766;DHT22;20984;43.508;1.504;2023-12-20T11:46:05;9.70;99.90
34766;DHT22;20984;43.508;1.504;2023-12-20T11:48:32;9.60;99.90
34766;DHT22;20984;43.508;1.504;2023-12-20T11:50:58;9.60;99.90
34766;DHT22;20984;43.508;1.504;2023-12-20T11:53:24;9.60;99.90
34766;DHT22;20984;43.508;1.504;2023-12-20T11:55:50;9.60;99.90
34766;DHT22;20984;43.508;1.504;2023-12-20T11:58:16;9.70;99.90
34766;DHT22;20984;43.508;1.504;2023-12-20T12:00:42;9.60;99.90
34766;DHT22;20984;43.508;1.504;2023-12-20T12:03:09;9.60;99.90
34766;DHT22;20984;43.508;1.504;2023-12-20T12:05:35;9.40;99.90
34766;DHT22;20984;43.508;1.504;2023-12-20T12:08:02;9.30;99.90
34766;DHT22;20984;43.508;1.504;2023-12-20T12:10:29;9.20;99.90
34766;DHT22;20984;43.508;1.504;2023-12-20T12:12:55;9.10;99.90
34766;DHT22;20984;43.508;1.504;2023-12-20T12:15:21;9.10;99.90
34766;DHT22;20984;43.508;1.504;2023-12-20T12:17:56;9.10;99.90
34766;DHT22;20984;43.508;1.504;2023-12-20T12:20:23;9.10;99.90
34766;DHT22;20984;43.508;1.504;2023-12-20T12:23:05;9.10;99.90
34766;DHT22;20984;43.508;1.504;2023-12-20T12:25:32;9.10;99.90
34766;DHT22;20984;43.508;1.504;2023-12-20T12:27:58;9.00;99.90
34766;DHT22;20984;43.508;1.504;2023-12-20T12:30:25;9.00;99.90
34766;DHT22;20984;43.508;1.504;2023-12-20T12:32:51;9.00;99.90
34766;DHT22;20984;43.508;1.504;2023-12-20T12:35:17;9.00;99.90
34766;DHT22;20984;43.508;1.504;2023-12-20T12:37:43;9.00;99.90
34766;DHT22;20984;43.508;1.504;2023-12-20T12:40:10;9.10;99.90
34766;DHT22;20984;43.508;1.504;2023-12-20T12:42:37;9.10;99.90
34766;DHT22;20984;43.508;1.504;2023-12-20T12:45:03;9.20;99.90
34766;DHT22;20984;43.508;1.504;2023-12-20T12:47:30;9.30;99.90
34766;DHT22;20984;43.508;1.504;2023-12-20T12:49:56;9.30;99.90
34766;DHT22;20984;43.508;1.504;2023-12-20T12:52:21;9.30;99.90
34766;DHT22;20984;43.508;1.504;2023-12-20T12:54:48;9.40;99.90
34766;DHT22;20984;43.508;1.504;2023-12-20T12:57:14;9.50;99.90
34766;DHT22;20984;43.508;1.504;2023-12-20T12:59:41;9.80;99.90
34766;DHT22;20984;43.508;1.504;2023-12-20T13:02:06;10.00;99.90
34766;DHT22;20984;43.508;1.504;2023-12-20T13:04:32;10.10;99.90
34766;DHT22;20984;43.508;1.504;2023-12-20T13:06:58;10.00;99.90
34766;DHT22;20984;43.508;1.504;2023-12-20T13:09:23;9.70;99.90
34766;DHT22;20984;43.508;1.504;2023-12-20T13:11:49;9.40;99.90
34766;DHT22;20984;43.508;1.504;2023-12-20T13:14:15;9.10;99.90
34766;DHT22;20984;43.508;1.504;2023-12-20T13:16:41;8.90;99.90
34766;DHT22;20984;43.508;1.504;2023-12-20T13:19:07;8.80;99.90
34766;DHT22;20984;43.508;1.504;2023-12-20T13:21:33;8.90;99.90
34766;DHT22;20984;43.508;1.504;2023-12-20T13:23:59;8.90;99.90
34766;DHT22;20984;43.508;1.504;2023-12-20T13:26:25;8.90;99.90
34766;DHT22;20984;43.508;1.504;2023-12-20T13:28:50;8.90;99.90
34766;DHT22;20984;43.508;1.504;2023-12-20T13:31:16;8.90;99.90
34766;DHT22;20984;43.508;1.504;2023-12-20T13:33:41;8.80;99.90
34766;DHT22;20984;43.508;1.504;2023-12-20T13:36:07;8.60;99.90
34766;DHT22;20984;43.508;1.504;2023-12-20T13:38:33;8.50;99.90
34766;DHT22;20984;43.508;1.504;2023-12-20T13:40:59;8.50;99.90
34766;DHT22;20984;43.508;1.504;2023-12-20T13:43:25;8.50;99.90
34766;DHT22;20984;43.508;1.504;2023-12-20T13:45:50;8.60;99.90
34766;DHT22;20984;43.508;1.504;2023-12-20T13:48:16;8.70;99.90
34766;DHT22;20984;43.508;1.504;2023-12-20T13:50:42;8.80;99.90
34766;DHT22;20984;43.508;1.504;2023-12-20T13:53:08;8.90;99.90
34766;DHT22;20984;43.508;1.504;2023-12-20T13:55:33;8.90;99.90
34766;DHT22;20984;43.508;1.504;2023-12-20T13:57:59;8.90;99.90
34766;DHT22;20984;43.508;1.504;2023-12-20T14:00:24;8.90;99.90
34766;DHT22;20984;43.508;1.504;2023-12-20T14:02:50;8.90;99.90
34766;DHT22;20984;43.508;1.504;2023-12-20T14:05:16;8.90;99.90
34766;DHT22;20984;43.508;1.504;2023-12-20T14:07:45;8.90;99.90
34766;DHT22;20984;43.508;1.504;2023-12-20T14:10:12;8.90;99.90
34766;DHT22;20984;43.508;1.504;2023-12-20T14:12:41;8.90;99.90
34766;DHT22;20984;43.508;1.504;2023-12-20T14:15:08;8.90;99.90
34766;DHT22;20984;43.508;1.504;2023-12-20T14:17:37;8.80;99.90
34766;DHT22;20984;43.508;1.504;2023-12-20T14:20:04;8.80;99.90
34766;DHT22;20984;43.508;1.504;2023-12-20T14:22:31;8.80;99.90
34766;DHT22;20984;43.508;1.504;2023-12-20T14:24:57;8.80;99.90
34766;DHT22;20984;43.508;1.504;2023-12-20T14:27:23;8.80;99.90
34766;DHT22;20984;43.508;1.504;2023-12-20T14:29:50;8.80;99.90
34766;DHT22;20984;43.508;1.504;2023-12-20T14:32:15;8.80;99.90
34766;DHT22;20984;43.508;1.504;2023-12-20T14:34:41;8.90;99.90
34766;DHT22;20984;43.508;1.504;2023-12-20T14:37:07;9.00;99.90
34766;DHT22;20984;43.508;1.504;2023-12-20T14:39:33;9.00;99.90
34766;DHT22;20984;43.508;1.504;2023-12-20T14:41:58;9.10;99.90
34766;DHT22;20984;43.508;1.504;2023-12-20T14:44:24;8.90;99.90
34766;DHT22;20984;43.508;1.504;2023-12-20T14:46:50;8.90;99.90
34766;DHT22;20984;43.508;1.504;2023-12-20T14:49:16;8.80;99.90
34766;DHT22;20984;43.508;1.504;2023-12-20T14:51:45;8.70;99.90
34766;DHT22;20984;43.508;1.504;2023-12-20T14:54:13;8.60;99.90
34766;DHT22;20984;43.508;1.504;2023-12-20T14:56:39;8.60;99.90
34766;DHT22;20984;43.508;1.504;2023-12-20T14:59:05;8.60;99.90
34766;DHT22;20984;43.508;1.504;2023-12-20T15:01:30;8.60;99.90
34766;DHT22;20984;43.508;1.504;2023-12-20T15:03:56;8.60;99.90
34766;DHT22;20984;43.508;1.504;2023-12-20T15:06:22;8.60;99.90
34766;DHT22;20984;43.508;1.504;2023-12-20T15:08:48;8.60;99.90
34766;DHT22;20984;43.508;1.504;2023-12-20T15:11:13;8.70;99.90
34766;DHT22;20984;43.508;1.504;2023-12-20T15:13:39;8.60;99.90
34766;DHT22;20984;43.508;1.504;2023-12-20T15:16:05;8.70;99.90
34766;DHT22;20984;43.508;1.504;2023-12-20T15:18:31;8.60;99.90
34766;DHT22;20984;43.508;1.504;2023-12-20T15:20:57;8.50;99.90
34766;DHT22;20984;43.508;1.504;2023-12-20T15:23:23;8.50;99.90
34766;DHT22;20984;43.508;1.504;2023-12-20T15:25:52;8.50;99.90
34766;DHT22;20984;43.508;1.504;2023-12-20T15:28:17;8.50;99.90
34766;DHT22;20984;43.508;1.504;2023-12-20T15:30:43;8.50;99.90
34766;DHT22;20984;43.508;1.504;2023-12-20T15:33:09;8.50;99.90
34766;DHT22;20984;43.508;1.504;2023-12-20T15:35:34;8.50;99.90
34766;DHT22;20984;43.508;1.504;2023-12-20T15:38:00;8.40;99.90
34766;DHT22;20984;43.508;1.504;2023-12-20T15:40:26;8.40;99.90